aviador You're here:

LDOS Decoded Metar

OSIJEK in CROATIA
Report Time2017-09-24 22:30:00
UTC Time2017-09-24 23:00:43
Flight Rules vfr VFR
Wind040° at 05 kt
W.Decomp.*RWY 11: 1.5 kt HW 4.8 kt LCW
W.Rank040° ranks 34
Current wind is below 040° avg. (5.7)
Visibility9999 m
Phenomena:N/A
Clouds:N/A
Expected CloudBase > 400 ft AGL from Temp-Dew spread
CeilingNone
Temp12°C (ISA -2)
Dew Point11°C (94% RH)
AAT10.5°C
QNH1021 hPa
Density Alt-89 ft
Elevation292 ft
Report Wrong Elevation
Raw Report
LDOS 242230Z 04005KT CAVOK 12/11 Q1021=

Extra information for LDOS:More info

Metar Taf Metar & Taf Last 4 Metars F.Rules Stats Wind Profile Meteogram Temp Stats Airport Information Weather charts Add Link Nearby VenuesMetar ALERT Operation Metar Decoded Social comments